createdAt,value
2023-04-25T00:00:22.995Z,2.8
2023-04-25T00:01:23.464Z,2.8
2023-04-25T00:02:23.957Z,3
2023-04-25T00:03:24.721Z,3.1
2023-04-25T00:04:24.735Z,2.9
2023-04-25T00:05:25.347Z,3
2023-04-25T00:06:25.544Z,3.1
2023-04-25T00:07:26.740Z,2.7
2023-04-25T00:08:26.578Z,3.1
2023-04-25T00:09:27.862Z,3.2
2023-04-25T00:10:27.204Z,2.7
2023-04-25T00:11:27.661Z,2.7
2023-04-25T00:12:28.241Z,3.1
2023-04-25T00:13:28.561Z,26.8
2023-04-25T00:14:29.038Z,22.1
2023-04-25T00:15:29.591Z,9.9
2023-04-25T00:16:30.706Z,5.3
2023-04-25T00:17:30.240Z,4.4
2023-04-25T00:18:30.755Z,3.2
2023-04-25T00:19:30.950Z,3
2023-04-25T00:20:31.578Z,3.3
2023-04-25T00:21:32.009Z,3
2023-04-25T00:22:32.606Z,2.7
2023-04-25T00:23:32.830Z,3.1
2023-04-25T00:24:33.056Z,2.7
2023-04-25T00:25:33.650Z,3
2023-04-25T00:26:35.461Z,2.8
2023-04-25T00:27:34.592Z,3.2
2023-04-25T00:28:34.906Z,2.9
2023-04-25T00:29:35.319Z,3
2023-04-25T00:30:35.757Z,3.1
2023-04-25T00:31:36.184Z,2.8
2023-04-25T00:32:36.591Z,3
2023-04-25T00:33:37.090Z,2.9
2023-04-25T00:34:37.504Z,2.7
2023-04-25T00:35:37.916Z,2.8
2023-04-25T00:36:38.555Z,2.7
2023-04-25T00:37:38.859Z,3
2023-04-25T00:38:39.345Z,2.9
2023-04-25T00:39:39.578Z,3.1
2023-04-25T00:40:40.097Z,3.1
2023-04-25T00:41:41.350Z,2.5
2023-04-25T00:42:42.681Z,3
2023-04-25T00:43:42.290Z,3.4
2023-04-25T00:44:43.826Z,3.4
2023-04-25T00:45:44.538Z,3.5
2023-04-25T00:46:43.876Z,3.1
2023-04-25T00:47:43.956Z,3
2023-04-25T00:48:44.042Z,3.2
2023-04-25T00:49:44.778Z,3.4
2023-04-25T00:50:56.558Z,3.4
2023-04-25T00:51:49.494Z,3.5
2023-04-25T00:52:49.409Z,3.3
2023-04-25T00:53:51.714Z,3.6
2023-04-25T00:54:50.432Z,3.5
2023-04-25T00:55:51.571Z,3.5
2023-04-25T00:56:51.019Z,3.8
2023-04-25T00:57:51.574Z,4
2023-04-25T00:58:54.872Z,3.8
2023-04-25T00:59:54.057Z,3.1
2023-04-25T01:00:53.735Z,3.3
2023-04-25T01:01:53.185Z,3.2
2023-04-25T01:02:54.135Z,2.9
2023-04-25T01:03:55.820Z,3.7
2023-04-25T01:04:54.452Z,3.2
2023-04-25T01:05:55.633Z,3.2
2023-04-25T01:06:55.530Z,3.4
2023-04-25T01:07:55.749Z,3.3
2023-04-25T01:08:56.169Z,3.1
2023-04-25T01:09:56.583Z,2.9
2023-04-25T01:10:57.107Z,3.1
2023-04-25T01:11:57.327Z,3.3
2023-04-25T01:12:57.726Z,3
2023-04-25T01:13:58.541Z,3.3
2023-04-25T01:14:58.867Z,2.8
2023-04-25T01:16:00.542Z,3.2
2023-04-25T01:16:59.929Z,2.9
2023-04-25T01:18:00.187Z,3.2
2023-04-25T01:19:00.993Z,2.9
2023-04-25T01:20:02.185Z,3.2
2023-04-25T01:21:11.969Z,3.1
2023-04-25T01:22:05.473Z,3.2
2023-04-25T01:23:04.893Z,3.3
2023-04-25T01:24:06.395Z,3
2023-04-25T01:25:06.298Z,3.2
2023-04-25T01:26:07.948Z,3
2023-04-25T01:27:07.335Z,3.3
2023-04-25T01:28:07.235Z,3.1
2023-04-25T01:29:08.720Z,3.1
2023-04-25T01:30:08.804Z,3.1
2023-04-25T01:31:08.827Z,3
2023-04-25T01:32:09.674Z,3
2023-04-25T01:33:10.200Z,3.5
2023-04-25T01:34:09.484Z,3.3
2023-04-25T01:35:11.638Z,3.5
2023-04-25T01:36:10.541Z,3.7
2023-04-25T01:37:10.518Z,3.2
2023-04-25T01:38:11.145Z,3.2
2023-04-25T01:39:12.346Z,3.1
2023-04-25T01:40:13.876Z,3.1
2023-04-25T01:41:12.656Z,3.1
2023-04-25T01:42:14.501Z,3.4
2023-04-25T01:43:13.690Z,3.7
2023-04-25T01:44:14.303Z,3.5
2023-04-25T01:45:14.112Z,3
2023-04-25T01:46:14.600Z,3.4
2023-04-25T01:47:14.946Z,3.1
2023-04-25T01:48:15.381Z,3
2023-04-25T01:49:15.773Z,3
2023-04-25T01:50:17.927Z,3.4
2023-04-25T01:51:16.830Z,3.4
2023-04-25T01:52:16.933Z,3.1
2023-04-25T01:53:17.545Z,3.3
2023-04-25T01:54:19.594Z,3.4
2023-04-25T01:55:18.290Z,3
2023-04-25T01:56:20.026Z,3.2
2023-04-25T01:57:19.157Z,3.2
2023-04-25T01:58:19.390Z,2.9
2023-04-25T01:59:20.452Z,3
2023-04-25T02:00:20.558Z,3.2
2023-04-25T02:01:20.931Z,3.4
2023-04-25T02:02:21.185Z,3.5
2023-04-25T02:03:21.970Z,3.3
2023-04-25T02:04:22.249Z,3.2
2023-04-25T02:05:22.562Z,3
2023-04-25T02:06:22.912Z,3.2
2023-04-25T02:07:23.481Z,3.1
2023-04-25T02:08:23.792Z,3.4
2023-04-25T02:09:24.365Z,3.5
2023-04-25T02:10:24.492Z,5.2
2023-04-25T02:11:25.146Z,3.9
2023-04-25T02:12:25.298Z,4.4
2023-04-25T02:13:25.973Z,4
2023-04-25T02:14:26.337Z,4.2
2023-04-25T02:15:26.700Z,5
2023-04-25T02:16:27.186Z,4.4
2023-04-25T02:17:27.355Z,4.1
2023-04-25T02:18:27.904Z,3.6
2023-04-25T02:19:28.367Z,3.6
2023-04-25T02:20:31.057Z,3.3
2023-04-25T02:21:29.053Z,3.2
2023-04-25T02:22:29.511Z,3.2
2023-04-25T02:23:30.251Z,2.9
2023-04-25T02:24:30.550Z,3.6
2023-04-25T02:25:30.757Z,3.4
2023-04-25T02:26:31.330Z,3.3
2023-04-25T02:27:32.020Z,3
2023-04-25T02:28:32.006Z,3.3
2023-04-25T02:29:32.431Z,3.2
2023-04-25T02:30:32.959Z,3.3
2023-04-25T02:31:33.240Z,2.7
2023-04-25T02:32:33.820Z,3.5
2023-04-25T02:33:34.043Z,3
2023-04-25T02:34:34.516Z,3.1
2023-04-25T02:35:34.986Z,3.2
2023-04-25T02:36:35.350Z,2.8
2023-04-25T02:37:37.401Z,3.3
2023-04-25T02:38:36.018Z,3.1
2023-04-25T02:39:37.240Z,3.2
2023-04-25T02:40:36.952Z,3
2023-04-25T02:41:37.433Z,3.1
2023-04-25T02:42:37.763Z,3.1
2023-04-25T02:43:38.257Z,3.1
2023-04-25T02:44:38.670Z,3.2
2023-04-25T02:45:39.084Z,3.2
2023-04-25T02:46:40.032Z,3
2023-04-25T02:47:39.699Z,3
2023-04-25T02:48:40.132Z,3.2
2023-04-25T02:49:40.755Z,3.1
2023-04-25T02:50:40.966Z,3.2
2023-04-25T02:51:41.405Z,3.7
2023-04-25T02:52:41.859Z,3.1
2023-04-25T02:53:42.258Z,2.9
2023-04-25T02:54:42.828Z,2.9
2023-04-25T02:55:43.047Z,3.1
2023-04-25T02:56:43.626Z,2.9
2023-04-25T02:57:44.108Z,3.1
2023-04-25T02:58:45.311Z,3.1
2023-04-25T02:59:44.722Z,3.1
2023-04-25T03:00:45.267Z,2.8
2023-04-25T03:01:45.451Z,3.2
2023-04-25T03:02:45.912Z,3.3
2023-04-25T03:03:46.418Z,3.2
2023-04-25T03:04:46.850Z,3.8
2023-04-25T03:05:47.046Z,3.8
2023-04-25T03:06:47.617Z,4.4
2023-04-25T03:07:47.899Z,4.5
2023-04-25T03:08:48.312Z,4.6
2023-04-25T03:09:48.774Z,4.7
2023-04-25T03:10:49.083Z,4.5
2023-04-25T03:11:49.496Z,4
2023-04-25T03:12:50.153Z,3.9
2023-04-25T03:13:50.608Z,4.1
2023-04-25T03:14:50.746Z,5.3
2023-04-25T03:15:51.066Z,4.7
2023-04-25T03:16:51.614Z,4.9
2023-04-25T03:17:51.911Z,5.5
2023-04-25T03:18:52.374Z,4.9
2023-04-25T03:19:52.675Z,4.9
2023-04-25T03:20:53.143Z,4.8
2023-04-25T03:21:53.456Z,4.9
2023-04-25T03:22:53.977Z,4.8
2023-04-25T03:23:54.290Z,5.1
2023-04-25T03:24:54.911Z,4.5
2023-04-25T03:25:55.094Z,5.9
2023-04-25T03:26:55.440Z,6.1
2023-04-25T03:27:55.897Z,6.2
2023-04-25T03:28:56.261Z,6.2
2023-04-25T03:29:56.795Z,6.1
2023-04-25T03:30:57.195Z,5.7
2023-04-25T03:31:57.652Z,6.1
2023-04-25T03:32:57.976Z,6.2
2023-04-25T03:33:58.347Z,5.9
2023-04-25T03:34:58.765Z,5.9
2023-04-25T03:35:59.181Z,5.9
2023-04-25T03:36:59.606Z,5.1
2023-04-25T03:37:59.905Z,5.5
2023-04-25T03:39:00.375Z,5.2
2023-04-25T03:40:00.839Z,5.4
2023-04-25T03:41:01.875Z,5.1
2023-04-25T03:42:01.539Z,4.6
2023-04-25T03:43:01.904Z,4.5
2023-04-25T03:44:02.307Z,4.2
2023-04-25T03:45:02.928Z,4.6
2023-04-25T03:46:03.152Z,4.3
2023-04-25T03:47:03.573Z,4.5
2023-04-25T03:48:04.615Z,4.9
2023-04-25T03:49:04.485Z,5.2
2023-04-25T03:50:05.322Z,4.8
2023-04-25T03:51:05.438Z,4.2
2023-04-25T03:52:05.533Z,5.3
2023-04-25T03:53:05.849Z,10
2023-04-25T03:54:06.213Z,7
2023-04-25T03:55:07.420Z,4.3
2023-04-25T03:56:07.834Z,4.7
2023-04-25T03:57:07.815Z,4.1
2023-04-25T03:58:07.826Z,3.9
2023-04-25T03:59:08.354Z,3.8
2023-04-25T04:00:09.370Z,4.5
2023-04-25T04:01:09.140Z,4
2023-04-25T04:02:09.584Z,4.3
2023-04-25T04:03:10.116Z,4.3
2023-04-25T04:04:10.526Z,6.8
2023-04-25T04:05:10.957Z,4.7
2023-04-25T04:06:11.255Z,6
2023-04-25T04:07:11.516Z,15.8
2023-04-25T04:08:11.806Z,26.8
2023-04-25T04:09:12.621Z,45.8
2023-04-25T04:10:13.123Z,40.4
2023-04-25T04:11:13.142Z,47.5
2023-04-25T04:12:13.552Z,40.8
2023-04-25T04:13:14.070Z,37.9
2023-04-25T04:14:14.377Z,32.6
2023-04-25T04:15:14.904Z,25.3
2023-04-25T04:16:15.242Z,23.4
2023-04-25T04:17:15.470Z,16.8
2023-04-25T04:18:16.049Z,11
2023-04-25T04:19:16.271Z,8
2023-04-25T04:20:16.683Z,7.4
2023-04-25T04:21:17.092Z,6.8
2023-04-25T04:22:17.557Z,6
2023-04-25T04:23:17.934Z,7.4
2023-04-25T04:24:18.366Z,8.3
2023-04-25T04:25:18.871Z,7.7
2023-04-25T04:26:19.275Z,6.1
2023-04-25T04:27:20.252Z,6
2023-04-25T04:28:20.007Z,5.5
2023-04-25T04:29:20.422Z,5.5
2023-04-25T04:30:20.733Z,5.4
2023-04-25T04:31:24.242Z,5.7
2023-04-25T04:32:21.709Z,7.1
2023-04-25T04:33:22.451Z,8.1
2023-04-25T04:34:22.507Z,9.6
2023-04-25T04:35:23.945Z,10.7
2023-04-25T04:36:23.439Z,10
2023-04-25T04:37:23.657Z,8.7
2023-04-25T04:38:24.172Z,11.3
2023-04-25T04:39:24.581Z,10.8
2023-04-25T04:40:25.202Z,9.7
2023-04-25T04:41:25.350Z,8.6
2023-04-25T04:42:25.675Z,8.5
2023-04-25T04:43:26.147Z,7.9
2023-04-25T04:44:26.675Z,7.6
2023-04-25T04:45:27.053Z,7
2023-04-25T04:46:27.463Z,7.8
2023-04-25T04:47:27.828Z,7.7
2023-04-25T04:48:28.224Z,8.4
2023-04-25T04:49:28.740Z,7.9
2023-04-25T04:50:29.395Z,7.4
2023-04-25T04:51:29.365Z,6.7
2023-04-25T04:52:29.899Z,8.8
2023-04-25T04:53:30.219Z,6.3
2023-04-25T04:54:30.733Z,8
2023-04-25T04:55:31.174Z,6.1
2023-04-25T04:56:32.010Z,5.2
2023-04-25T04:57:32.548Z,4.4
2023-04-25T04:58:32.293Z,4.4
2023-04-25T04:59:32.808Z,4
2023-04-25T05:00:33.500Z,4
2023-04-25T05:01:33.529Z,3.9
2023-04-25T05:02:34.144Z,3.8
2023-04-25T05:03:34.686Z,3.7
2023-04-25T05:04:35.077Z,3.8
2023-04-25T05:05:35.413Z,4.4
2023-04-25T05:06:35.737Z,3.7
2023-04-25T05:07:36.146Z,3.9
2023-04-25T05:08:37.281Z,4.7
2023-04-25T05:09:36.972Z,4.1
2023-04-25T05:10:37.390Z,3.9
2023-04-25T05:11:37.691Z,3.8
2023-04-25T05:12:38.220Z,3.8
2023-04-25T05:13:38.569Z,5.3
2023-04-25T05:14:39.205Z,9.1
2023-04-25T05:15:40.190Z,5
2023-04-25T05:16:40.635Z,5.2
2023-04-25T05:17:41.027Z,4.1
2023-04-25T05:18:41.533Z,4.2
2023-04-25T05:19:41.746Z,4
2023-04-25T05:20:42.170Z,4.8
2023-04-25T05:21:42.688Z,4.1
2023-04-25T05:22:43.215Z,4
2023-04-25T05:23:43.511Z,4
2023-04-25T05:24:43.824Z,3.6
2023-04-25T05:25:44.554Z,3.7
2023-04-25T05:26:44.788Z,4.3
2023-04-25T05:27:45.188Z,3.7
2023-04-25T05:28:45.566Z,3.9
2023-04-25T05:29:46.007Z,4
2023-04-25T05:30:46.538Z,4.2
2023-04-25T05:31:47.474Z,4.1
2023-04-25T05:32:47.995Z,4
2023-04-25T05:33:48.742Z,4.1
2023-04-25T05:34:48.823Z,3.3
2023-04-25T05:35:49.345Z,4.5
2023-04-25T05:36:49.645Z,4.8
2023-04-25T05:37:49.961Z,3.9
2023-04-25T05:38:50.580Z,4.6
2023-04-25T05:39:50.820Z,4.1
2023-04-25T05:40:52.383Z,3.7
2023-04-25T05:41:51.726Z,3.9
2023-04-25T05:42:51.977Z,4.2
2023-04-25T05:43:54.757Z,3.5
2023-04-25T05:44:53.683Z,3.5
2023-04-25T05:45:54.956Z,3.7
2023-04-25T05:46:54.716Z,3.1
2023-04-25T05:47:54.971Z,3
2023-04-25T05:48:55.358Z,3.5
2023-04-25T05:49:56.379Z,4.7
2023-04-25T05:50:57.006Z,3.9
2023-04-25T05:51:57.303Z,3.6
2023-04-25T05:52:57.477Z,4
2023-04-25T05:53:57.944Z,3.7
2023-04-25T05:54:58.578Z,3.2
2023-04-25T05:55:58.983Z,3.2
2023-04-25T05:56:59.394Z,3.4
2023-04-25T05:58:00.242Z,3.2
2023-04-25T05:59:00.241Z,3.4
2023-04-25T06:00:00.603Z,3.3
2023-04-25T06:01:01.162Z,3.3
2023-04-25T06:02:01.521Z,3.2
2023-04-25T06:03:02.269Z,2.7
2023-04-25T06:04:02.589Z,3.2
2023-04-25T06:05:02.960Z,3.2
2023-04-25T06:06:03.793Z,3.2
2023-04-25T06:07:03.859Z,3.1
2023-04-25T06:08:04.578Z,3.1
2023-04-25T06:09:04.594Z,2.9
2023-04-25T06:10:06.090Z,3.1
2023-04-25T06:11:05.628Z,2.9
2023-04-25T06:12:06.976Z,3.1
2023-04-25T06:13:06.664Z,3.2
2023-04-25T06:14:07.227Z,3.2
2023-04-25T06:15:20.186Z,3.5
2023-04-25T06:16:09.775Z,58.3
2023-04-25T06:17:09.763Z,6.2
2023-04-25T06:18:10.330Z,4.3
2023-04-25T06:19:10.711Z,3.4
2023-04-25T06:20:11.854Z,3.2
2023-04-25T06:21:11.546Z,2.9
2023-04-25T06:22:12.050Z,3.5
2023-04-25T06:23:12.474Z,3.1
2023-04-25T06:24:12.890Z,3.2
2023-04-25T06:25:13.289Z,3.1
2023-04-25T06:26:13.816Z,3
2023-04-25T06:27:16.465Z,3.4
2023-04-25T06:28:14.499Z,3.4
2023-04-25T06:29:15.127Z,3.4
2023-04-25T06:30:15.659Z,3.5
2023-04-25T06:31:16.154Z,3.2
2023-04-25T06:32:16.424Z,3.4
2023-04-25T06:33:16.944Z,3.6
2023-04-25T06:34:17.256Z,3.5
2023-04-25T06:35:17.815Z,3.3
2023-04-25T06:36:18.297Z,3.2
2023-04-25T06:37:18.707Z,3.4
2023-04-25T06:38:19.124Z,3.1
2023-04-25T06:39:19.535Z,2.8
2023-04-25T06:40:20.059Z,3.1
2023-04-25T06:41:20.590Z,3.4
2023-04-25T06:42:20.794Z,3.1
2023-04-25T06:43:21.310Z,3.5
2023-04-25T06:44:22.032Z,3.2
2023-04-25T06:45:22.251Z,2.8
2023-04-25T06:46:22.791Z,3.4
2023-04-25T06:47:23.000Z,3.3
2023-04-25T06:48:23.592Z,3.4
2023-04-25T06:49:23.919Z,3.3
2023-04-25T06:50:24.586Z,3.5
2023-04-25T06:51:24.836Z,3.2
2023-04-25T06:52:25.245Z,3
2023-04-25T06:53:25.678Z,3.4
2023-04-25T06:54:26.194Z,3
2023-04-25T06:55:26.700Z,3.1
2023-04-25T06:56:27.131Z,3.3
2023-04-25T06:57:27.437Z,3.3
2023-04-25T06:58:28.668Z,3.5
2023-04-25T06:59:28.474Z,3.5
2023-04-25T07:00:28.915Z,3
2023-04-25T07:01:29.208Z,3.2
2023-04-25T07:02:29.920Z,3.3
2023-04-25T07:03:30.431Z,2.9
2023-04-25T07:04:30.812Z,3.4
2023-04-25T07:05:31.107Z,2.9
2023-04-25T07:06:31.504Z,4.5
2023-04-25T07:07:32.017Z,14.3
2023-04-25T07:08:32.447Z,27.9
2023-04-25T07:09:32.745Z,7.8
2023-04-25T07:10:33.515Z,3.1
2023-04-25T07:11:33.729Z,2.8
2023-04-25T07:12:34.394Z,2.9
2023-04-25T07:13:34.720Z,3
2023-04-25T07:14:35.069Z,3
2023-04-25T07:15:35.650Z,2.9
2023-04-25T07:16:36.106Z,3.2
2023-04-25T07:17:36.530Z,3.4
2023-04-25T07:18:36.901Z,3.3
2023-04-25T07:19:37.418Z,3.2
2023-04-25T07:20:37.741Z,3.1
2023-04-25T07:21:38.249Z,3.2
2023-04-25T07:22:38.765Z,3.3
2023-04-25T07:23:39.185Z,3.5
2023-04-25T07:24:39.542Z,3.1
2023-04-25T07:25:40.072Z,3
2023-04-25T07:26:40.539Z,3.5
2023-04-25T07:27:40.905Z,3.2
2023-04-25T07:28:41.375Z,3.5
2023-04-25T07:29:41.907Z,3.4
2023-04-25T07:30:42.309Z,3.1
2023-04-25T07:31:43.007Z,3
2023-04-25T07:32:43.300Z,5.3
2023-04-25T07:33:43.658Z,4.2
2023-04-25T07:34:44.100Z,3
2023-04-25T07:35:44.597Z,3.2
2023-04-25T07:36:45.574Z,3.8
2023-04-25T07:37:46.035Z,3.5
2023-04-25T07:38:46.558Z,3.6
2023-04-25T07:39:46.928Z,3.3
2023-04-25T07:40:51.284Z,3.5
2023-04-25T07:41:49.277Z,3.4
2023-04-25T07:42:49.243Z,3
2023-04-25T07:43:49.860Z,3.1
2023-04-25T07:44:50.104Z,3.1
2023-04-25T07:45:50.420Z,2.9
2023-04-25T07:46:50.971Z,3
2023-04-25T07:47:51.596Z,3
2023-04-25T07:48:52.096Z,3.1
2023-04-25T07:49:52.261Z,3.5
2023-04-25T07:50:52.745Z,3.4
2023-04-25T07:51:53.316Z,3.2
2023-04-25T07:52:53.625Z,3.1
2023-04-25T07:53:54.150Z,3.1
2023-04-25T07:54:54.764Z,3.3
2023-04-25T07:55:54.971Z,2.8
2023-04-25T07:56:55.535Z,3.2
2023-04-25T07:57:56.009Z,3.8
2023-04-25T07:58:57.183Z,3.3
2023-04-25T07:59:56.740Z,3.2
2023-04-25T08:00:57.359Z,2.8
2023-04-25T08:01:57.778Z,2.9
2023-04-25T08:02:58.404Z,2.9
2023-04-25T08:03:58.813Z,3.5
2023-04-25T08:04:59.319Z,2.9
2023-04-25T08:05:59.908Z,2.9
2023-04-25T08:07:00.138Z,3.3
2023-04-25T08:08:00.470Z,2.9
2023-04-25T08:09:00.999Z,3.2
2023-04-25T08:10:01.418Z,3.2
2023-04-25T08:11:02.029Z,3.3
2023-04-25T08:12:02.644Z,3.1
2023-04-25T08:13:02.869Z,3.4
2023-04-25T08:14:03.389Z,3.2
2023-04-25T08:15:04.825Z,3.1
2023-04-25T08:16:04.867Z,3.1
2023-04-25T08:17:05.029Z,3.1
2023-04-25T08:18:05.172Z,3.4
2023-04-25T08:19:05.578Z,3.4
2023-04-25T08:20:07.198Z,3.1
2023-04-25T08:21:06.812Z,3.1
2023-04-25T08:22:07.015Z,3.1
2023-04-25T08:23:07.379Z,3.4
2023-04-25T08:24:08.372Z,3.5
2023-04-25T08:25:08.761Z,3.6
2023-04-25T08:26:08.716Z,3.3
2023-04-25T08:27:09.349Z,3.7
2023-04-25T08:28:09.722Z,4.1
2023-04-25T08:29:10.084Z,3.3
2023-04-25T08:30:11.171Z,2.6
2023-04-25T08:31:11.085Z,3.3
2023-04-25T08:32:11.573Z,3
2023-04-25T08:33:12.446Z,3.8
2023-04-25T08:34:12.628Z,4.1
2023-04-25T08:35:12.865Z,3
2023-04-25T08:36:14.640Z,3
2023-04-25T08:37:15.099Z,3.1
2023-04-25T08:38:15.308Z,3.1
2023-04-25T08:39:15.840Z,3
2023-04-25T08:40:16.887Z,4.1
2023-04-25T08:41:19.146Z,3
2023-04-25T08:42:18.301Z,3.9
2023-04-25T08:43:19.918Z,4.2
2023-04-25T08:44:17.956Z,3.8
2023-04-25T08:45:18.746Z,3.7
2023-04-25T08:46:19.691Z,3.3
2023-04-25T08:47:22.921Z,3.9
2023-04-25T08:48:20.296Z,3.7
2023-04-25T08:49:20.804Z,2.7
2023-04-25T08:50:23.410Z,3
2023-04-25T08:51:25.052Z,3.1
2023-04-25T08:54:35.593Z,2.9
2023-04-25T08:55:29.386Z,3.3
2023-04-25T08:56:30.647Z,2.8
2023-04-25T08:57:32.329Z,3.8
2023-04-25T08:58:30.081Z,4
2023-04-25T08:59:32.258Z,3.8
2023-04-25T09:00:31.689Z,3.9
2023-04-25T09:01:31.170Z,3.5
2023-04-25T09:02:32.161Z,3.3
2023-04-25T09:03:32.276Z,3.1
2023-04-25T09:04:33.308Z,3.6
2023-04-25T09:05:34.844Z,3
2023-04-25T09:06:33.941Z,3
2023-04-25T09:07:34.023Z,3.1
2023-04-25T09:08:34.138Z,2.8
2023-04-25T09:09:34.579Z,3.1
2023-04-25T09:10:35.480Z,2.9
2023-04-25T09:11:37.548Z,3.5
2023-04-25T09:12:36.533Z,3.4
2023-04-25T09:13:35.907Z,3.8
2023-04-25T09:14:36.460Z,3.7
2023-04-25T09:17:45.121Z,2.7
2023-04-25T09:18:49.000Z,3
2023-04-25T09:19:46.659Z,4.3
2023-04-25T09:21:50.630Z,2.6
2023-04-25T09:22:48.068Z,2.9
2023-04-25T09:23:50.096Z,2.6
2023-04-25T09:24:48.795Z,4.1
2023-04-25T09:26:52.172Z,2.5
2023-04-25T09:27:54.455Z,2.3
2023-04-25T09:29:59.785Z,2.3
2023-04-25T09:30:58.869Z,2.6
2023-04-25T09:34:02.658Z,2.5
2023-04-25T09:35:02.381Z,2.6
2023-04-25T09:36:05.255Z,2.8
2023-04-25T09:37:03.253Z,5.2
2023-04-25T09:38:09.258Z,3.2
2023-04-25T09:39:14.066Z,2.6
2023-04-25T09:40:13.465Z,2.5
2023-04-25T09:41:12.505Z,2.4
2023-04-25T09:42:12.239Z,2.4
2023-04-25T09:44:15.868Z,3
2023-04-25T09:45:15.239Z,3
2023-04-25T09:46:15.462Z,2.4
2023-04-25T09:47:16.497Z,2.9
2023-04-25T09:48:23.385Z,2.3
2023-04-25T09:49:24.557Z,2.5
2023-04-25T09:50:21.928Z,2.5
2023-04-25T09:51:27.215Z,4.3
2023-04-25T09:52:26.198Z,2.5
2023-04-25T09:53:25.022Z,2.5
2023-04-25T09:54:28.129Z,2.9
2023-04-25T09:55:26.714Z,2.7
2023-04-25T09:56:28.926Z,2.3
2023-04-25T09:57:26.821Z,2.3
2023-04-25T09:58:31.875Z,2.8
2023-04-25T09:59:32.852Z,2.9
2023-04-25T10:00:31.926Z,2.6
2023-04-25T10:01:31.300Z,2.4
2023-04-25T10:02:33.027Z,2.3
2023-04-25T10:03:34.394Z,2.4
2023-04-25T10:04:36.509Z,2.6
2023-04-25T10:05:36.459Z,2.3
2023-04-25T10:06:35.242Z,2.2
2023-04-25T10:07:37.710Z,2.6
2023-04-25T10:08:39.166Z,2.5
2023-04-25T10:09:40.824Z,2.4
2023-04-25T10:10:41.217Z,2.2
2023-04-25T10:11:40.550Z,2.4
2023-04-25T10:12:39.709Z,2.6
2023-04-25T10:13:39.507Z,3.1
2023-04-25T10:14:40.779Z,3.1
2023-04-25T10:15:40.714Z,3.8
2023-04-25T10:16:42.492Z,2.7
2023-04-25T10:17:41.421Z,2.5
2023-04-25T10:18:41.362Z,3
2023-04-25T10:19:42.026Z,3.1
2023-04-25T10:20:42.196Z,2.9
2023-04-25T10:21:51.002Z,2.8
2023-04-25T10:22:46.716Z,2.8
2023-04-25T10:23:45.388Z,4.3
2023-04-25T10:24:45.150Z,2.6
2023-04-25T10:25:45.605Z,2.7
2023-04-25T10:26:45.618Z,2.6
2023-04-25T10:27:45.679Z,2.4
2023-04-25T10:31:56.471Z,2.9
2023-04-25T10:32:56.946Z,2.8
2023-04-25T10:33:56.825Z,2.4
2023-04-25T10:34:57.203Z,3.2
2023-04-25T10:35:59.600Z,2.7
2023-04-25T10:36:57.970Z,2.8
2023-04-25T10:39:07.303Z,2.5
2023-04-25T10:41:09.669Z,2.8
2023-04-25T10:42:09.267Z,2.8
2023-04-25T10:44:15.156Z,2.7
2023-04-25T10:45:15.540Z,3
2023-04-25T10:51:27.704Z,3.9
2023-04-25T10:52:27.575Z,2.7
2023-04-25T10:53:26.083Z,2.6
2023-04-25T10:54:27.235Z,2.3
2023-04-25T10:55:26.855Z,2.4
2023-04-25T10:58:29.713Z,2.4
2023-04-25T10:59:30.069Z,2.7
2023-04-25T11:00:42.857Z,2.4
2023-04-25T11:01:43.080Z,2.4
2023-04-25T11:02:39.350Z,2.4
2023-04-25T11:04:38.933Z,2.7
2023-04-25T11:05:55.192Z,3.3
2023-04-25T11:08:04.023Z,2.6
2023-04-25T11:08:53.689Z,2.9
2023-04-25T11:09:46.712Z,2.4
2023-04-25T11:10:49.566Z,2.6
2023-04-25T11:11:55.291Z,2.7
2023-04-25T11:12:48.282Z,3.6
2023-04-25T11:13:51.377Z,4.9
2023-04-25T11:14:48.909Z,3.1
2023-04-25T11:16:03.152Z,2.7
2023-04-25T11:16:59.002Z,3
2023-04-25T11:17:53.582Z,3.1
2023-04-25T11:18:53.562Z,2.4
2023-04-25T11:19:55.126Z,2.3
2023-04-25T11:20:54.182Z,2.9
2023-04-25T11:22:01.684Z,2.5
2023-04-25T11:22:59.716Z,3.3
2023-04-25T11:24:00.947Z,2.3
2023-04-25T11:25:05.328Z,2.6
2023-04-25T11:26:03.106Z,2.5
2023-04-25T11:27:04.546Z,4.6
2023-04-25T11:28:03.735Z,3.5
2023-04-25T11:29:04.247Z,3
2023-04-25T11:31:08.669Z,2.6
2023-04-25T11:32:09.047Z,2.4
2023-04-25T11:33:11.003Z,2.5
2023-04-25T11:34:09.807Z,2.4
2023-04-25T11:35:11.097Z,2.5
2023-04-25T11:36:11.267Z,2.7
2023-04-25T11:37:11.169Z,2.4
2023-04-25T11:38:11.734Z,3.6
2023-04-25T11:39:11.899Z,2.6
2023-04-25T11:40:12.972Z,2.4
2023-04-25T11:41:12.438Z,2.6
2023-04-25T11:42:13.792Z,2.3
2023-04-25T11:43:13.153Z,2.4
2023-04-25T11:44:16.442Z,2.4
2023-04-25T11:45:15.218Z,2.8
2023-04-25T11:46:14.430Z,2.6
2023-04-25T11:47:14.718Z,2.8
2023-04-25T11:48:15.355Z,2.9
2023-04-25T11:49:16.411Z,2.9
2023-04-25T11:50:15.973Z,2.7
2023-04-25T11:51:16.284Z,2.5
2023-04-25T11:52:17.001Z,2.3
2023-04-25T11:53:19.225Z,2.3
2023-04-25T11:54:17.836Z,2.4
2023-04-25T11:55:19.485Z,2.7
2023-04-25T11:56:18.147Z,2.3
2023-04-25T11:57:20.827Z,2.4
2023-04-25T11:58:19.101Z,2.4
2023-04-25T11:59:25.032Z,2.5
2023-04-25T12:00:23.565Z,2.7
2023-04-25T12:02:26.486Z,2.9
2023-04-25T12:03:24.141Z,2.7
2023-04-25T12:04:25.878Z,2.4
2023-04-25T12:06:29.658Z,4.8
2023-04-25T12:07:31.024Z,4.1
2023-04-25T12:08:30.155Z,2.4
2023-04-25T12:09:32.692Z,2.3
2023-04-25T12:10:31.050Z,2.5
2023-04-25T12:11:32.488Z,4.3
2023-04-25T12:13:33.891Z,3.4
2023-04-25T12:14:36.809Z,2.5
2023-04-25T12:15:34.976Z,2.4
2023-04-25T12:17:35.425Z,2.7
2023-04-25T12:18:37.149Z,2.4
2023-04-25T12:19:37.588Z,2.8
2023-04-25T12:20:37.058Z,2.5
2023-04-25T12:21:46.937Z,2.1
2023-04-25T12:22:39.109Z,2.5
2023-04-25T12:23:40.361Z,2.7
2023-04-25T12:24:40.290Z,2.3
2023-04-25T12:25:42.608Z,4.4
2023-04-25T12:27:42.434Z,2.6
2023-04-25T12:28:46.731Z,2.5
2023-04-25T12:31:52.706Z,2.5
2023-04-25T12:32:51.134Z,2.4
2023-04-25T12:33:51.473Z,3
2023-04-25T12:34:51.894Z,2.5
2023-04-25T12:35:53.124Z,2.8
2023-04-25T12:36:53.653Z,2.7
2023-04-25T12:37:53.649Z,4.5
2023-04-25T12:38:53.785Z,3.2
2023-04-25T12:39:53.892Z,2.7
2023-04-25T12:40:54.902Z,3.1
2023-04-25T12:41:54.746Z,2.4
2023-04-25T12:42:55.264Z,2.7
2023-04-25T12:43:55.641Z,2.7
2023-04-25T12:44:55.856Z,2.7
2023-04-25T12:45:57.189Z,2.4
2023-04-25T12:46:56.747Z,3.6
2023-04-25T12:47:57.153Z,3.9
2023-04-25T12:49:05.302Z,3.4
2023-04-25T12:49:59.309Z,3.3
2023-04-25T12:50:59.906Z,3.8
2023-04-25T12:52:00.194Z,6.1
2023-04-25T12:53:00.506Z,5.8
2023-04-25T12:54:01.032Z,6.2
2023-04-25T12:55:01.253Z,5.8
2023-04-25T12:56:01.797Z,5.6
2023-04-25T12:57:02.240Z,4.6
2023-04-25T12:58:02.550Z,3
2023-04-25T12:59:03.118Z,2.9
2023-04-25T13:00:03.523Z,4
2023-04-25T13:01:03.486Z,3
2023-04-25T13:02:04.743Z,2.7
2023-04-25T13:03:04.741Z,3.5
2023-04-25T13:04:05.286Z,2.8
2023-04-25T13:05:05.813Z,2.4
2023-04-25T13:06:06.391Z,2.3
2023-04-25T13:07:05.722Z,2.4
2023-04-25T13:08:06.180Z,2.4
2023-04-25T13:09:06.653Z,2.6
2023-04-25T13:10:08.193Z,2.5
2023-04-25T13:11:07.497Z,2.4
2023-04-25T13:12:07.906Z,2.5
2023-04-25T13:13:08.123Z,2.7
2023-04-25T13:14:08.528Z,2.7
2023-04-25T13:15:10.309Z,2.4
2023-04-25T13:16:09.788Z,2.6
2023-04-25T13:17:09.682Z,2.6
2023-04-25T13:18:10.228Z,2.7
2023-04-25T13:19:10.252Z,2.1
2023-04-25T13:20:11.559Z,3.2
2023-04-25T13:21:11.657Z,2.9
2023-04-25T13:22:11.488Z,2.5
2023-04-25T13:23:11.979Z,2.3
2023-04-25T13:24:12.299Z,11.2
2023-04-25T13:25:12.648Z,2.9
2023-04-25T13:26:13.256Z,2.5
2023-04-25T13:27:13.863Z,3.7
2023-04-25T13:28:14.038Z,4.2
2023-04-25T13:29:14.153Z,11
2023-04-25T13:30:15.492Z,2.9
2023-04-25T13:31:14.992Z,2.6
2023-04-25T13:32:15.469Z,2.7
2023-04-25T13:33:16.550Z,3.7
2023-04-25T13:34:15.975Z,3.9
2023-04-25T13:35:18.006Z,2.5
2023-04-25T13:36:16.884Z,3
2023-04-25T13:37:17.299Z,3.2
2023-04-25T13:38:17.506Z,2.5
2023-04-25T13:39:18.027Z,2.3
2023-04-25T13:40:18.332Z,2.6
2023-04-25T13:41:18.585Z,2.4
2023-04-25T13:42:19.842Z,3.1
2023-04-25T13:43:21.526Z,2.4
2023-04-25T13:44:20.605Z,2.5
2023-04-25T13:45:21.676Z,3.1
2023-04-25T13:46:40.860Z,2.7
2023-04-25T13:47:24.263Z,4.2
2023-04-25T13:48:25.246Z,2.7
2023-04-25T13:49:24.271Z,3.6
2023-04-25T13:50:24.699Z,2.8
2023-04-25T13:51:26.365Z,2.6
2023-04-25T13:52:25.396Z,2.5
2023-04-25T13:53:26.093Z,2.3
2023-04-25T13:54:26.511Z,3.6
2023-04-25T13:55:27.328Z,4.3
2023-04-25T13:56:27.725Z,2.7
2023-04-25T13:57:27.473Z,2.7
2023-04-25T13:58:27.666Z,2.7
2023-04-25T13:59:28.717Z,3.9
2023-04-25T14:00:28.421Z,2.4
2023-04-25T14:01:28.904Z,2.7
2023-04-25T14:02:30.085Z,2.6
2023-04-25T14:03:29.952Z,2.6
2023-04-25T14:04:30.073Z,3.5
2023-04-25T14:05:30.677Z,4.3
2023-04-25T14:06:31.103Z,2.5
2023-04-25T14:07:31.150Z,3.1
2023-04-25T14:08:31.477Z,2.4
2023-04-25T14:09:32.253Z,2.5
2023-04-25T14:10:32.142Z,2.5
2023-04-25T14:11:32.659Z,2.6
2023-04-25T14:12:33.653Z,2.7
2023-04-25T14:13:33.402Z,2.6
2023-04-25T14:14:33.705Z,2.8
2023-04-25T14:15:34.501Z,2.5
2023-04-25T14:16:35.118Z,2.7
2023-04-25T14:17:34.805Z,2.3
2023-04-25T14:18:35.171Z,2.3
2023-04-25T14:19:35.532Z,2.3
2023-04-25T14:20:35.906Z,3.1
2023-04-25T14:21:36.350Z,2.4
2023-04-25T14:22:36.732Z,2.7
2023-04-25T14:23:37.156Z,2.3
2023-04-25T14:24:37.566Z,3.5
2023-04-25T14:25:38.073Z,2
2023-04-25T14:26:38.649Z,2.3
2023-04-25T14:27:38.719Z,2.5
2023-04-25T14:28:39.225Z,2.2
2023-04-25T14:29:39.433Z,3
2023-04-25T14:30:39.853Z,2.7
2023-04-25T14:31:41.029Z,2.7
2023-04-25T14:32:40.651Z,2.5